»·PEaware :: N2506 KLAX-KSNA

N2506 :: KLAX-KSNA

FLIGHT INFORMATION

Flight Status: Arrived
Operator: Privately registered:
United States
More flights under this callsign
Pilot: Daniel L. (32547)
Aircraft: CESSNA 172 SKYHAWK
(C172)
More flights by this aircraft type
Origin: KLAX Los Angeles Intl
United States
Destination: KSNA John Wayne-Orange Co
United States
More flights between these airports :: More routes between these airports
Route: SLI8 SLI
File this flight plan on PilotEdge
Remarks: LAXP55
Altitude:
(Current/Filed)
4,000ft
Speed:
(Current/Filed)
110kts
Departed: 10-Jan-21 11:41 AM
Arrived: 10-Jan-21 12:29 PM
Distance/Time
Traveled:
6795nm/0:48
Distance/Time
To Go:
Arrived

Flight Plot

Page will automatically refresh every two minutes.

Flight plan parsing failed; only flown route is shown


Map Options




Map Legend


Flown Route
Filed Route
Departure Airport
Arrival Airport
Navaid (VOR, NDB)
Fix

Horizontal Profiles

Position Reports

Time Latitude Longitude Heading Altitude Ground
Speed
10-Jan-21 11:26 33.933893 -118.395735 225 120ft 0kts
10-Jan-21 11:27 33.933893 -118.395735 225 120ft 0kts
10-Jan-21 11:28 33.933893 -118.395735 225 120ft 0kts
10-Jan-21 11:29 33.933893 -118.395735 225 120ft 0kts
10-Jan-21 11:30 33.933893 -118.395735 225 120ft 0kts
10-Jan-21 11:31 33.933893 -118.395735 225 120ft 0kts
10-Jan-21 11:32 33.933893 -118.395735 225 120ft 0kts
10-Jan-21 11:33 33.933893 -118.395735 225 120ft 0kts
10-Jan-21 11:34 33.933893 -118.395735 225 120ft 0kts
10-Jan-21 11:35 33.933887 -118.395745 244 120ft 0kts
10-Jan-21 11:36 33.934732 -118.395136 33 120ft 3kts
10-Jan-21 11:37 33.935222 -118.391369 80 120ft 20kts
10-Jan-21 11:38 33.935967 -118.384230 82 120ft 18kts
10-Jan-21 11:39 33.936424 -118.382850 2 120ft 0kts
10-Jan-21 11:40 33.936902 -118.387341 262 122ft 63kts
10-Jan-21 11:41 33.933263 -118.413125 263 689ft 86kts
10-Jan-21 11:42 33.929698 -118.441538 262 1467ft 85kts
10-Jan-21 11:43 33.912301 -118.459817 214 2273ft 83kts
10-Jan-21 11:44 33.893876 -118.474342 213 3072ft 73kts
10-Jan-21 11:45 33.876850 -118.487456 213 3591ft 88kts
10-Jan-21 11:46 33.852512 -118.506538 214 3898ft 114kts
10-Jan-21 11:47 33.824593 -118.528609 213 3989ft 124kts
10-Jan-21 11:48 33.797722 -118.525229 116 4007ft 125kts
10-Jan-21 11:49 33.783447 -118.487029 113 4006ft 118kts
10-Jan-21 11:50 33.770972 -118.452073 112 4009ft 112kts
10-Jan-21 11:51 33.760715 -118.417143 84 4008ft 111kts
10-Jan-21 11:52 33.768120 -118.385909 109 4011ft 111kts
10-Jan-21 11:53 33.756317 -118.351192 112 4008ft 111kts
10-Jan-21 11:54 33.743657 -118.315260 112 4018ft 121kts
10-Jan-21 11:55 33.730474 -118.277809 112 4017ft 121kts
10-Jan-21 11:56 33.717341 -118.240491 112 4017ft 121kts
10-Jan-21 11:57 33.704190 -118.203222 112 4009ft 121kts
10-Jan-21 11:58 33.691070 -118.166025 112 4008ft 120kts
10-Jan-21 11:59 33.677458 -118.129253 112 4013ft 118kts
10-Jan-21 12:00 33.664580 -118.093499 112 4018ft 117kts
10-Jan-21 12:01 33.651799 -118.057650 112 4018ft 117kts
10-Jan-21 12:02 33.669330 -118.040288 354 4020ft 118kts
10-Jan-21 12:03 33.702175 -118.044537 355 4018ft 118kts
10-Jan-21 12:04 33.734971 -118.048675 354 4017ft 118kts
10-Jan-21 12:05 33.767667 -118.052737 354 4018ft 118kts
10-Jan-21 12:06 33.795129 -118.043166 88 4016ft 117kts
10-Jan-21 12:07 33.803098 -118.006684 63 4019ft 117kts
10-Jan-21 12:08 33.817007 -117.971796 63 4008ft 118kts
10-Jan-21 12:09 33.831335 -117.936377 63 3998ft 118kts
10-Jan-21 12:10 33.846312 -117.899462 64 3983ft 125kts
10-Jan-21 12:11 33.861538 -117.861944 63 3969ft 124kts
10-Jan-21 12:12 33.876665 -117.824595 63 3968ft 124kts
10-Jan-21 12:13 33.891789 -117.787254 63 3968ft 124kts
10-Jan-21 12:14 33.906923 -117.749877 63 3984ft 123kts
10-Jan-21 12:15 33.921966 -117.712731 63 3990ft 124kts
10-Jan-21 12:16 33.950088 -117.689764 28 3989ft 124kts
10-Jan-21 12:17 33.941697 -117.674201 241 3988ft 126kts
10-Jan-21 12:18 33.924261 -117.709635 217 3987ft 126kts
10-Jan-21 12:19 33.893477 -117.730500 208 3979ft 127kts
10-Jan-21 12:21 33.862146 -117.750601 207 3976ft 127kts
10-Jan-21 12:22 33.829785 -117.771325 206 3488ft 150kts
10-Jan-21 12:23 33.799366 -117.790511 207 2635ft 123kts
10-Jan-21 12:24 33.768367 -117.810141 207 1958ft 126kts
10-Jan-21 12:25 33.737329 -117.829799 207 1289ft 124kts
10-Jan-21 12:26 33.713138 -117.845125 208 762ft 87kts
10-Jan-21 12:27 33.693561 -117.857553 208 337ft 72kts
10-Jan-21 12:28 33.676497 -117.868406 206 55ft 55kts
10-Jan-21 12:29 33.674285 -117.870897 293 54ft 0kts
10-Jan-21 12:30 33.674091 -117.872007 285 54ft 0kts
10-Jan-21 12:31 0.000000 0.000000 0 0ft 0kts

Navigation Log

Ident Type
Flight plan parsing failed, navigation log unavailable